createdAt,value
2022-08-16T00:01:16.301Z,9.63
2022-08-16T00:03:43.996Z,9.23
2022-08-16T00:06:12.173Z,9.57
2022-08-16T00:08:45.859Z,9.02
2022-08-16T00:11:15.148Z,9.75
2022-08-16T00:13:43.633Z,9.70
2022-08-16T00:16:57.879Z,10.23
2022-08-16T00:19:09.486Z,9.30
2022-08-16T00:21:40.781Z,9.18
2022-08-16T00:24:11.396Z,9.25
2022-08-16T00:26:45.048Z,10.13
2022-08-16T00:29:17.064Z,9.05
2022-08-16T00:31:59.293Z,9.98
2022-08-16T00:34:41.227Z,9.85
2022-08-16T00:37:12.655Z,9.13
2022-08-16T00:39:47.235Z,9.50
2022-08-16T00:42:29.708Z,9.38
2022-08-16T00:45:01.339Z,9.48
2022-08-16T00:47:34.497Z,9.80
2022-08-16T00:50:05.287Z,9.07
2022-08-16T00:52:50.441Z,9.35
2022-08-16T00:55:19.858Z,8.75
2022-08-16T00:57:58.605Z,8.77
2022-08-16T01:00:28.800Z,9.02
2022-08-16T01:02:57.496Z,9.48
2022-08-16T01:05:25.617Z,8.85
2022-08-16T01:07:54.317Z,9.57
2022-08-16T01:10:32.706Z,9.35
2022-08-16T01:13:07.059Z,9.05
2022-08-16T01:15:37.557Z,9.18
2022-08-16T01:18:06.414Z,9.70
2022-08-16T01:20:35.636Z,9.35
2022-08-16T01:23:12.282Z,9.05
2022-08-16T01:25:42.046Z,8.93
2022-08-16T01:28:20.009Z,8.95
2022-08-16T01:30:50.514Z,8.75
2022-08-16T01:33:19.414Z,9.30
2022-08-16T01:35:46.813Z,9.55
2022-08-16T01:38:20.317Z,9.32
2022-08-16T01:40:47.767Z,8.73
2022-08-16T01:43:15.383Z,9.20
2022-08-16T01:45:43.437Z,8.90
2022-08-16T01:48:15.619Z,8.82
2022-08-16T01:51:09.333Z,9.07
2022-08-16T01:53:35.179Z,9.02
2022-08-16T01:56:03.184Z,8.95
2022-08-16T01:58:30.495Z,8.80
2022-08-16T02:00:58.098Z,8.60
2022-08-16T02:03:26.638Z,8.77
2022-08-16T02:05:54.326Z,9.18
2022-08-16T02:08:33.670Z,8.85
2022-08-16T02:11:02.509Z,8.70
2022-08-16T02:13:32.675Z,9.20
2022-08-16T02:16:00.236Z,9.10
2022-08-16T02:18:28.916Z,8.35
2022-08-16T02:20:56.179Z,8.80
2022-08-16T02:23:24.775Z,8.55
2022-08-16T02:25:53.994Z,8.93
2022-08-16T02:28:23.963Z,9.00
2022-08-16T02:30:51.732Z,9.15
2022-08-16T02:33:19.593Z,8.82
2022-08-16T02:35:58.048Z,8.85
2022-08-16T02:38:26.311Z,8.80
2022-08-16T02:40:54.603Z,8.73
2022-08-16T02:43:26.809Z,8.60
2022-08-16T02:45:54.802Z,8.75
2022-08-16T02:48:29.848Z,9.15
2022-08-16T02:51:06.784Z,8.73
2022-08-16T02:53:40.325Z,9.02
2022-08-16T02:56:09.873Z,9.23
2022-08-16T02:58:37.407Z,9.15
2022-08-16T03:01:07.228Z,9.15
2022-08-16T03:04:40.950Z,8.68
2022-08-16T03:06:42.373Z,9.10
2022-08-16T03:09:13.915Z,8.80
2022-08-16T03:11:43.634Z,8.75
2022-08-16T03:14:11.669Z,8.30
2022-08-16T03:16:58.580Z,8.32
2022-08-16T03:19:48.746Z,8.70
2022-08-16T03:22:19.235Z,8.95
2022-08-16T03:24:57.392Z,8.70
2022-08-16T03:27:25.234Z,9.05
2022-08-16T03:29:58.474Z,8.68
2022-08-16T03:32:26.140Z,8.77
2022-08-16T03:34:53.648Z,8.75
2022-08-16T03:37:20.954Z,8.70
2022-08-16T03:39:48.314Z,8.77
2022-08-16T03:42:23.951Z,8.52
2022-08-16T03:44:51.238Z,8.68
2022-08-16T03:47:34.227Z,8.52
2022-08-16T03:50:02.978Z,8.43
2022-08-16T03:52:31.562Z,8.52
2022-08-16T03:54:59.801Z,8.10
2022-08-16T03:57:31.990Z,8.75
2022-08-16T04:00:35.473Z,7.90
2022-08-16T04:03:07.122Z,8.50
2022-08-16T04:05:40.210Z,8.93
2022-08-16T04:08:23.111Z,8.25
2022-08-16T04:10:53.206Z,8.60
2022-08-16T04:14:00.709Z,8.10
2022-08-16T04:16:09.398Z,8.10
2022-08-16T04:18:54.521Z,8.25
2022-08-16T04:21:30.272Z,8.43
2022-08-16T04:23:59.294Z,8.60
2022-08-16T04:26:30.985Z,8.25
2022-08-16T04:29:16.794Z,8.73
2022-08-16T04:31:56.145Z,8.63
2022-08-16T04:34:26.459Z,8.52
2022-08-16T04:36:54.264Z,8.85
2022-08-16T04:39:23.743Z,8.07
2022-08-16T04:41:56.686Z,9.48
2022-08-16T04:44:53.130Z,8.38
2022-08-16T04:47:21.688Z,8.38
2022-08-16T04:49:52.321Z,8.00
2022-08-16T04:52:33.155Z,8.25
2022-08-16T04:55:15.325Z,7.93
2022-08-16T04:57:43.207Z,8.18
2022-08-16T05:00:32.677Z,7.82
2022-08-16T05:03:01.207Z,8.45
2022-08-16T05:05:30.626Z,8.70
2022-08-16T05:08:29.961Z,8.43
2022-08-16T05:10:51.649Z,8.07
2022-08-16T05:13:19.252Z,8.77
2022-08-16T05:15:47.169Z,8.40
2022-08-16T05:18:20.904Z,8.50
2022-08-16T05:21:09.667Z,8.30
2022-08-16T05:23:38.740Z,8.65
2022-08-16T05:26:06.524Z,8.10
2022-08-16T05:28:47.238Z,8.57
2022-08-16T05:31:22.708Z,8.52
2022-08-16T05:33:53.494Z,8.30
2022-08-16T05:36:22.161Z,8.40
2022-08-16T05:38:49.724Z,8.20
2022-08-16T05:41:17.138Z,8.77
2022-08-16T05:43:47.740Z,8.20
2022-08-16T05:46:30.037Z,8.77
2022-08-16T05:49:05.658Z,8.00
2022-08-16T05:51:38.257Z,8.25
2022-08-16T05:54:06.749Z,8.10
2022-08-16T05:56:34.134Z,7.97
2022-08-16T05:59:06.276Z,8.23
2022-08-16T06:01:38.027Z,8.48
2022-08-16T06:04:13.691Z,8.23
2022-08-16T06:06:56.118Z,7.50
2022-08-16T06:09:25.301Z,8.30
2022-08-16T06:11:52.750Z,6.93
2022-08-16T06:14:20.707Z,7.32
2022-08-16T06:16:50.787Z,8.43
2022-08-16T06:19:18.746Z,7.72
2022-08-16T06:21:55.235Z,7.65
2022-08-16T06:24:53.522Z,8.23
2022-08-16T06:27:10.991Z,8.02
2022-08-16T06:29:38.938Z,8.57
2022-08-16T06:32:06.519Z,7.38
2022-08-16T06:34:56.603Z,7.72
2022-08-16T06:37:23.630Z,8.07
2022-08-16T06:39:50.952Z,7.80
2022-08-16T06:42:19.247Z,7.40
2022-08-16T06:44:46.874Z,8.18
2022-08-16T06:47:16.898Z,7.25
2022-08-16T06:49:52.641Z,7.53
2022-08-16T06:52:59.795Z,7.70
2022-08-16T06:55:12.800Z,7.03
2022-08-16T06:57:41.321Z,7.38
2022-08-16T07:00:24.385Z,7.82
2022-08-16T07:02:53.923Z,7.18
2022-08-16T07:05:27.370Z,7.25
2022-08-16T07:08:11.672Z,7.10
2022-08-16T07:10:41.671Z,7.07
2022-08-16T07:13:11.930Z,7.25
2022-08-16T07:15:50.622Z,7.22
2022-08-16T07:18:21.827Z,7.10
2022-08-16T07:20:53.929Z,7.10
2022-08-16T07:23:37.179Z,7.32
2022-08-16T07:26:08.061Z,7.13
2022-08-16T07:28:35.646Z,7.15
2022-08-16T07:31:03.433Z,7.20
2022-08-16T07:33:52.337Z,7.15
2022-08-16T07:36:21.885Z,7.68
2022-08-16T07:38:50.478Z,7.00
2022-08-16T07:41:18.678Z,6.50
2022-08-16T07:43:47.534Z,7.07
2022-08-16T07:46:38.384Z,6.50
2022-08-16T07:49:03.723Z,6.13
2022-08-16T07:51:37.139Z,6.45
2022-08-16T07:54:09.618Z,6.63
2022-08-16T07:56:38.045Z,6.93
2022-08-16T07:59:06.349Z,6.90
2022-08-16T08:01:34.776Z,6.28
2022-08-16T08:04:03.383Z,6.13
2022-08-16T08:06:32.362Z,6.07
2022-08-16T08:09:00.419Z,6.38
2022-08-16T08:11:28.808Z,6.53
2022-08-16T08:14:03.365Z,6.40
2022-08-16T08:16:32.009Z,6.03
2022-08-16T08:19:02.391Z,6.30
2022-08-16T08:22:00.739Z,9.00
2022-08-16T08:24:18.229Z,6.03
2022-08-16T08:26:49.892Z,6.10
2022-08-16T08:29:17.753Z,5.60
2022-08-16T08:31:52.033Z,6.05
2022-08-16T08:34:21.277Z,5.53
2022-08-16T08:36:54.114Z,5.68
2022-08-16T08:39:22.653Z,5.25
2022-08-16T08:41:50.433Z,5.40
2022-08-16T08:44:28.732Z,5.88
2022-08-16T08:47:07.995Z,5.43
2022-08-16T08:49:46.529Z,4.88
2022-08-16T08:52:34.943Z,5.38
2022-08-16T08:55:10.459Z,5.25
2022-08-16T08:57:39.637Z,5.13
2022-08-16T09:00:13.244Z,5.68
2022-08-16T09:02:44.539Z,5.60
2022-08-16T09:05:16.666Z,5.20
2022-08-16T09:07:54.627Z,5.30
2022-08-16T09:10:29.477Z,5.20
2022-08-16T09:12:57.044Z,5.68
2022-08-16T09:15:24.429Z,5.00
2022-08-16T09:17:55.873Z,4.70
2022-08-16T09:20:25.733Z,5.03
2022-08-16T09:22:53.190Z,5.15
2022-08-16T09:25:25.772Z,5.90
2022-08-16T09:27:57.870Z,5.30
2022-08-16T09:30:33.867Z,5.63
2022-08-16T09:33:06.670Z,5.85
2022-08-16T09:35:38.952Z,5.95
2022-08-16T09:38:08.728Z,5.50
2022-08-16T09:40:42.432Z,5.90
2022-08-16T09:43:21.114Z,5.80
2022-08-16T09:45:58.923Z,6.22
2022-08-16T09:48:44.419Z,5.57
2022-08-16T09:51:15.884Z,5.85
2022-08-16T09:53:53.924Z,6.10
2022-08-16T09:56:31.643Z,6.10
2022-08-16T09:59:05.008Z,5.50
2022-08-16T10:01:34.671Z,5.55
2022-08-16T10:04:04.510Z,5.40
2022-08-16T10:06:33.374Z,6.25
2022-08-16T10:09:05.852Z,5.63
2022-08-16T10:11:53.559Z,5.63
2022-08-16T10:14:24.515Z,5.85
2022-08-16T10:16:59.493Z,6.05
2022-08-16T10:19:29.108Z,5.20
2022-08-16T10:22:04.854Z,6.18
2022-08-16T10:24:33.206Z,5.72
2022-08-16T10:27:25.311Z,5.35
2022-08-16T10:29:59.933Z,5.30
2022-08-16T10:32:30.350Z,6.00
2022-08-16T10:34:57.953Z,5.47
2022-08-16T10:37:41.882Z,5.80
2022-08-16T10:40:28.978Z,6.20
2022-08-16T10:43:00.304Z,5.63
2022-08-16T10:45:28.441Z,5.38
2022-08-16T10:48:06.499Z,5.70
2022-08-16T10:50:54.645Z,6.00
2022-08-16T10:53:22.641Z,5.90
2022-08-16T10:55:57.408Z,6.10
2022-08-16T10:58:34.669Z,6.30
2022-08-16T11:01:24.962Z,6.30
2022-08-16T11:03:54.445Z,6.00
2022-08-16T11:06:28.068Z,6.05
2022-08-16T11:14:31.939Z,6.53
2022-08-16T11:17:02.358Z,6.40
2022-08-16T11:20:00.709Z,7.15
2022-08-16T11:22:47.191Z,7.07
2022-08-16T11:25:16.234Z,7.10
2022-08-16T11:28:01.003Z,7.05
2022-08-16T11:30:38.884Z,7.05
2022-08-16T11:33:07.434Z,6.65
2022-08-16T11:38:46.725Z,6.72
2022-08-16T11:44:02.947Z,7.13
2022-08-16T11:46:44.940Z,6.95
2022-08-16T11:49:14.474Z,6.82
2022-08-16T11:51:44.162Z,7.00
2022-08-16T11:54:20.487Z,7.43
2022-08-16T11:56:52.468Z,7.45
2022-08-16T11:59:24.457Z,6.68
2022-08-16T12:01:59.753Z,6.28
2022-08-16T12:04:28.108Z,6.72
2022-08-16T12:06:55.663Z,7.57
2022-08-16T12:09:24.755Z,7.18
2022-08-16T12:11:54.620Z,7.25
2022-08-16T12:14:23.041Z,6.88
2022-08-16T12:16:55.687Z,6.85
2022-08-16T12:19:33.934Z,6.90
2022-08-16T12:22:05.443Z,7.22
2022-08-16T12:24:46.549Z,6.88
2022-08-16T12:27:18.719Z,6.93
2022-08-16T12:29:46.019Z,7.07
2022-08-16T12:32:38.189Z,6.93
2022-08-16T12:35:01.847Z,7.50
2022-08-16T12:37:30.531Z,6.95
2022-08-16T12:39:59.113Z,6.50
2022-08-16T12:42:34.700Z,6.97
2022-08-16T12:45:07.453Z,6.38
2022-08-16T12:48:09.901Z,6.88
2022-08-16T12:50:41.768Z,6.70
2022-08-16T12:53:09.562Z,7.18
2022-08-16T12:55:41.949Z,6.72
2022-08-16T12:58:13.870Z,6.78
2022-08-16T13:00:58.831Z,7.68
2022-08-16T13:03:28.539Z,7.28
2022-08-16T13:05:59.476Z,6.63
2022-08-16T13:08:30.792Z,6.82
2022-08-16T13:11:00.725Z,6.43
2022-08-16T13:13:29.516Z,7.25
2022-08-16T13:16:02.214Z,7.60
2022-08-16T13:18:33.959Z,7.40
2022-08-16T13:21:02.822Z,6.95
2022-08-16T13:23:30.556Z,6.60
2022-08-16T13:25:58.015Z,6.75
2022-08-16T13:28:25.765Z,7.18
2022-08-16T13:30:55.127Z,7.30
2022-08-16T13:33:29.238Z,7.63
2022-08-16T13:35:58.361Z,7.28
2022-08-16T13:38:27.449Z,7.10
2022-08-16T13:40:58.631Z,6.93
2022-08-16T13:43:32.564Z,7.57
2022-08-16T13:46:04.441Z,7.15
2022-08-16T13:48:43.271Z,7.35
2022-08-16T13:51:16.844Z,7.17
2022-08-16T13:53:45.190Z,6.85
2022-08-16T13:56:25.024Z,7.07
2022-08-16T13:58:55.323Z,6.70
2022-08-16T14:01:23.689Z,7.10
2022-08-16T14:03:54.535Z,7.10
2022-08-16T14:06:22.445Z,6.80
2022-08-16T14:08:58.759Z,6.68
2022-08-16T14:11:29.111Z,7.10
2022-08-16T14:13:56.614Z,6.50
2022-08-16T14:16:33.486Z,6.88
2022-08-16T14:19:02.313Z,6.93
2022-08-16T14:21:35.288Z,6.45
2022-08-16T14:24:07.866Z,7.30
2022-08-16T14:26:40.460Z,6.90
2022-08-16T14:29:11.279Z,7.07
2022-08-16T14:31:39.887Z,6.80
2022-08-16T14:34:11.055Z,7.00
2022-08-16T14:36:42.074Z,6.80
2022-08-16T14:39:09.585Z,6.50
2022-08-16T14:41:39.507Z,6.93
2022-08-16T14:44:08.366Z,6.53
2022-08-16T14:46:36.728Z,6.30
2022-08-16T14:49:06.022Z,6.32
2022-08-16T14:54:05.542Z,6.22
2022-08-16T14:56:42.982Z,6.10
2022-08-16T14:59:14.080Z,6.38
2022-08-16T15:01:58.760Z,6.00
2022-08-16T15:04:40.023Z,5.78
2022-08-16T15:09:44.254Z,6.13
2022-08-16T15:12:33.389Z,6.43
2022-08-16T15:15:04.581Z,6.40
2022-08-16T15:17:41.311Z,6.13
2022-08-16T15:20:09.515Z,5.97
2022-08-16T15:22:38.769Z,6.05
2022-08-16T15:25:08.084Z,5.53
2022-08-16T15:27:42.123Z,6.15
2022-08-16T15:30:59.446Z,5.80
2022-08-16T15:33:02.925Z,5.95
2022-08-16T15:35:31.727Z,5.57
2022-08-16T15:38:01.396Z,6.35
2022-08-16T15:40:37.261Z,6.03
2022-08-16T15:43:33.694Z,5.80
2022-08-16T15:46:34.619Z,6.10
2022-08-16T15:49:09.258Z,5.65
2022-08-16T15:51:37.097Z,5.97
2022-08-16T15:54:20.844Z,5.45
2022-08-16T15:56:55.430Z,5.13
2022-08-16T15:59:27.445Z,5.73
2022-08-16T16:02:02.220Z,5.50
2022-08-16T16:04:31.372Z,5.80
2022-08-16T16:06:59.359Z,6.05
2022-08-16T16:09:36.857Z,5.47
2022-08-16T16:12:16.259Z,6.07
2022-08-16T16:14:53.038Z,5.80
2022-08-16T16:17:20.385Z,5.97
2022-08-16T16:19:49.543Z,6.68
2022-08-16T16:22:21.385Z,5.90
2022-08-16T16:24:50.371Z,6.10
2022-08-16T16:27:17.819Z,6.07
2022-08-16T16:29:46.321Z,5.57
2022-08-16T16:32:18.217Z,5.80
2022-08-16T16:35:01.538Z,6.07
2022-08-16T16:37:31.192Z,5.95
2022-08-16T16:39:58.842Z,5.85
2022-08-16T16:42:29.330Z,5.82
2022-08-16T16:45:01.437Z,5.70
2022-08-16T16:47:29.319Z,6.22
2022-08-16T16:49:56.638Z,6.13
2022-08-16T16:52:31.290Z,6.00
2022-08-16T16:55:12.882Z,5.70
2022-08-16T16:57:59.168Z,5.95
2022-08-16T17:00:38.181Z,6.25
2022-08-16T17:03:16.744Z,6.55
2022-08-16T17:05:57.348Z,6.72
2022-08-16T17:08:30.341Z,6.35
2022-08-16T17:10:58.206Z,6.18
2022-08-16T17:13:27.621Z,6.93
2022-08-16T17:15:55.012Z,6.70
2022-08-16T17:19:15.592Z,6.72
2022-08-16T17:21:11.549Z,6.20
2022-08-16T17:23:58.339Z,6.43
2022-08-16T17:26:29.980Z,6.85
2022-08-16T17:29:02.632Z,6.35
2022-08-16T17:31:43.297Z,6.57
2022-08-16T17:34:28.986Z,6.22
2022-08-16T17:36:59.699Z,6.70
2022-08-16T17:39:30.009Z,6.70
2022-08-16T17:42:02.103Z,6.63
2022-08-16T17:44:29.407Z,6.80
2022-08-16T17:46:56.922Z,6.80
2022-08-16T17:49:24.455Z,6.50
2022-08-16T17:51:51.823Z,6.70
2022-08-16T17:54:30.845Z,7.10
2022-08-16T17:57:01.770Z,6.72
2022-08-16T18:01:56.471Z,6.30
2022-08-16T18:04:49.908Z,6.97
2022-08-16T18:07:11.513Z,6.97
2022-08-16T18:09:40.810Z,6.55
2022-08-16T18:12:20.555Z,7.07
2022-08-16T18:15:00.255Z,6.75
2022-08-16T18:17:27.710Z,7.40
2022-08-16T18:19:55.088Z,6.90
2022-08-16T18:22:26.998Z,6.95
2022-08-16T18:24:57.254Z,7.35
2022-08-16T18:27:25.893Z,7.50
2022-08-16T18:29:54.244Z,7.40
2022-08-16T18:32:25.055Z,6.95
2022-08-16T18:34:54.354Z,7.30
2022-08-16T18:37:21.956Z,10.27
2022-08-16T18:39:49.353Z,8.23
2022-08-16T18:42:16.751Z,7.47
2022-08-16T18:44:45.041Z,7.35
2022-08-16T18:47:12.372Z,7.75
2022-08-16T18:49:39.678Z,7.22
2022-08-16T18:52:07.065Z,7.70
2022-08-16T18:55:01.883Z,7.25
2022-08-16T18:57:22.015Z,8.63
2022-08-16T18:59:49.276Z,8.32
2022-08-16T19:02:57.335Z,9.82
2022-08-16T19:05:12.932Z,9.18
2022-08-16T19:07:40.781Z,8.48
2022-08-16T19:10:08.637Z,9.10
2022-08-16T19:12:38.343Z,8.93
2022-08-16T19:15:21.928Z,8.07
2022-08-16T19:17:49.237Z,8.48
2022-08-16T19:20:17.636Z,8.35
2022-08-16T19:23:04.481Z,8.57
2022-08-16T19:25:48.410Z,10.32
2022-08-16T19:28:51.119Z,10.18
2022-08-16T19:31:31.066Z,9.27
2022-08-16T19:33:59.259Z,8.63
2022-08-16T19:36:34.059Z,7.97
2022-08-16T19:39:05.914Z,7.80
2022-08-16T19:41:34.927Z,8.02
2022-08-16T19:44:02.349Z,7.68
2022-08-16T19:46:29.701Z,7.88
2022-08-16T19:48:57.036Z,8.20
2022-08-16T19:51:24.302Z,8.30
2022-08-16T19:53:51.655Z,7.55
2022-08-16T19:56:18.963Z,7.43
2022-08-16T19:59:08.869Z,7.50
2022-08-16T20:01:41.146Z,7.78
2022-08-16T20:04:12.321Z,7.50
2022-08-16T20:06:40.131Z,7.68
2022-08-16T20:09:07.460Z,8.05
2022-08-16T20:11:35.388Z,8.07
2022-08-16T20:14:03.144Z,7.95
2022-08-16T20:16:30.540Z,7.82
2022-08-16T20:18:57.927Z,7.47
2022-08-16T20:21:25.231Z,8.10
2022-08-16T20:23:55.962Z,7.35
2022-08-16T20:26:32.294Z,7.82
2022-08-16T20:28:59.575Z,8.18
2022-08-16T20:31:26.849Z,7.90
2022-08-16T20:33:54.367Z,7.72
2022-08-16T20:36:22.007Z,8.02
2022-08-16T20:38:50.203Z,8.20
2022-08-16T20:41:17.578Z,7.95
2022-08-16T20:43:45.600Z,7.43
2022-08-16T20:46:14.090Z,7.50
2022-08-16T20:48:41.466Z,8.25
2022-08-16T20:51:10.883Z,7.85
2022-08-16T20:53:39.161Z,7.28
2022-08-16T20:56:06.540Z,7.63
2022-08-16T20:58:33.970Z,7.40
2022-08-16T21:01:01.438Z,7.63
2022-08-16T21:03:29.057Z,7.50
2022-08-16T21:05:59.817Z,8.18
2022-08-16T21:08:27.093Z,7.88
2022-08-16T21:11:14.387Z,7.78
2022-08-16T21:13:42.928Z,7.70
2022-08-16T21:16:10.438Z,7.28
2022-08-16T21:18:37.723Z,8.05
2022-08-16T21:21:05.069Z,7.28
2022-08-16T21:23:32.331Z,7.82
2022-08-16T21:25:59.983Z,7.80
2022-08-16T21:28:40.398Z,7.40
2022-08-16T21:31:11.418Z,7.50
2022-08-16T21:33:38.762Z,7.78
2022-08-16T21:36:06.149Z,7.60
2022-08-16T21:38:33.529Z,7.30
2022-08-16T21:41:00.935Z,7.47
2022-08-16T21:43:32.338Z,7.63
2022-08-16T21:46:03.711Z,8.00
2022-08-16T21:48:34.565Z,7.35
2022-08-16T21:51:07.368Z,8.02
2022-08-16T21:53:35.343Z,8.35
2022-08-16T21:56:03.425Z,7.57
2022-08-16T21:58:30.906Z,7.60
2022-08-16T22:00:58.202Z,7.35
2022-08-16T22:03:25.554Z,7.53
2022-08-16T22:06:11.046Z,7.82
2022-08-16T22:08:49.066Z,8.60
2022-08-16T22:11:21.305Z,8.20
2022-08-16T22:13:58.300Z,9.15
2022-08-16T22:16:30.438Z,7.93
2022-08-16T22:18:57.798Z,8.75
2022-08-16T22:21:25.219Z,8.18
2022-08-16T22:23:57.105Z,8.57
2022-08-16T22:26:29.929Z,7.60
2022-08-16T22:28:58.820Z,7.45
2022-08-16T22:31:26.231Z,8.45
2022-08-16T22:33:53.691Z,8.48
2022-08-16T22:36:21.007Z,7.95
2022-08-16T22:38:54.770Z,7.78
2022-08-16T22:41:24.636Z,7.78
2022-08-16T22:43:51.989Z,8.00
2022-08-16T22:46:19.673Z,7.40
2022-08-16T22:48:50.225Z,7.55
2022-08-16T22:51:18.542Z,7.65
2022-08-16T22:53:45.890Z,7.68
2022-08-16T22:56:13.218Z,8.05
2022-08-16T22:58:40.537Z,7.75
2022-08-16T23:01:09.408Z,7.70
2022-08-16T23:03:37.100Z,8.23
2022-08-16T23:06:05.599Z,8.00
2022-08-16T23:08:39.255Z,8.32
2022-08-16T23:11:12.787Z,7.93
2022-08-16T23:13:50.033Z,8.15
2022-08-16T23:18:49.831Z,7.78
2022-08-16T23:21:18.181Z,8.77
2022-08-16T23:23:49.146Z,8.15
2022-08-16T23:29:05.255Z,8.27
2022-08-16T23:31:33.108Z,8.70
2022-08-16T23:34:00.603Z,8.70
2022-08-16T23:36:27.914Z,8.50
2022-08-16T23:38:55.179Z,8.52
2022-08-16T23:41:22.475Z,8.25
2022-08-16T23:43:49.769Z,7.65
2022-08-16T23:46:19.569Z,8.07
2022-08-16T23:49:44.938Z,8.13
2022-08-16T23:51:34.853Z,9.27
2022-08-16T23:54:02.466Z,8.73
2022-08-16T23:56:32.087Z,8.65
2022-08-16T23:59:08.101Z,7.85
